createdAt,value
2023-02-02T00:01:37.442Z,36.77
2023-02-02T00:04:06.363Z,36.76
2023-02-02T00:06:35.152Z,36.89
2023-02-02T00:09:04.311Z,36.74
2023-02-02T00:11:32.415Z,36.86
2023-02-02T00:14:01.061Z,36.83
2023-02-02T00:16:39.340Z,36.63
2023-02-02T00:19:09.704Z,36.68
2023-02-02T00:21:38.914Z,36.80
2023-02-02T00:24:08.254Z,36.77
2023-02-02T00:26:37.277Z,36.80
2023-02-02T00:29:06.831Z,36.68
2023-02-02T00:31:35.659Z,36.81
2023-02-02T00:34:05.201Z,36.64
2023-02-02T00:36:33.369Z,36.67
2023-02-02T00:39:01.490Z,36.57
2023-02-02T00:41:29.581Z,36.79
2023-02-02T00:44:15.338Z,36.65
2023-02-02T00:46:43.775Z,36.69
2023-02-02T00:49:13.300Z,36.64
2023-02-02T00:51:41.495Z,36.67
2023-02-02T00:54:09.744Z,36.63
2023-02-02T00:56:37.851Z,36.64
2023-02-02T00:59:05.963Z,36.64
2023-02-02T01:01:34.096Z,36.64
2023-02-02T01:04:02.374Z,36.69
2023-02-02T01:06:32.326Z,36.66
2023-02-02T01:09:00.506Z,36.64
2023-02-02T01:11:28.685Z,36.57
2023-02-02T01:13:56.789Z,36.68
2023-02-02T01:16:25.033Z,36.53
2023-02-02T01:18:53.797Z,36.62
2023-02-02T01:21:22.200Z,36.62
2023-02-02T01:23:52.012Z,36.52
2023-02-02T01:26:20.192Z,36.68
2023-02-02T01:28:48.310Z,36.55
2023-02-02T01:31:18.270Z,36.60
2023-02-02T01:33:47.933Z,36.53
2023-02-02T01:36:18.725Z,36.68
2023-02-02T01:38:47.254Z,36.49
2023-02-02T01:41:19.225Z,36.62
2023-02-02T01:43:56.721Z,36.56
2023-02-02T01:46:27.664Z,36.71
2023-02-02T01:49:02.486Z,36.47
2023-02-02T01:51:37.116Z,36.52
2023-02-02T01:54:09.296Z,36.45
2023-02-02T01:56:42.874Z,36.54
2023-02-02T01:59:11.964Z,36.63
2023-02-02T02:01:40.075Z,36.41
2023-02-02T02:04:08.285Z,36.47
2023-02-02T02:06:36.690Z,36.52
2023-02-02T02:09:07.693Z,36.72
2023-02-02T02:11:38.140Z,36.54
2023-02-02T02:14:27.588Z,36.48
2023-02-02T02:17:07.747Z,36.46
2023-02-02T02:20:22.890Z,36.20
2023-02-02T02:23:32.807Z,36.40
2023-02-02T02:26:37.185Z,36.41
2023-02-02T02:29:32.593Z,36.33
2023-02-02T02:32:23.532Z,36.12
2023-02-02T02:34:58.990Z,36.43
2023-02-02T02:37:35.033Z,36.33
2023-02-02T02:40:10.481Z,36.47
2023-02-02T02:42:43.010Z,36.34
2023-02-02T02:45:13.178Z,36.43
2023-02-02T02:47:43.765Z,36.43
2023-02-02T02:50:12.681Z,36.48
2023-02-02T02:52:42.545Z,36.42
2023-02-02T02:55:13.191Z,36.41
2023-02-02T02:58:06.074Z,36.15
2023-02-02T03:00:49.779Z,36.28
2023-02-02T03:03:42.077Z,36.22
2023-02-02T03:06:18.082Z,36.37
2023-02-02T03:08:51.967Z,36.38
2023-02-02T03:11:20.872Z,36.38
2023-02-02T03:13:49.497Z,36.30
2023-02-02T03:16:18.756Z,36.24
2023-02-02T03:18:48.392Z,36.35
2023-02-02T03:21:16.656Z,36.26
2023-02-02T03:23:44.807Z,36.27
2023-02-02T03:26:12.993Z,36.31
2023-02-02T03:28:41.780Z,36.37
2023-02-02T03:31:10.129Z,36.25
2023-02-02T03:33:38.905Z,36.24
2023-02-02T03:36:09.445Z,36.31
2023-02-02T03:38:37.498Z,36.21
2023-02-02T03:41:06.797Z,36.26
2023-02-02T03:43:35.275Z,36.24
2023-02-02T03:46:05.608Z,36.30
2023-02-02T03:48:37.629Z,36.33
2023-02-02T03:51:11.986Z,36.19
2023-02-02T03:53:40.349Z,36.29
2023-02-02T03:56:08.666Z,36.19
2023-02-02T03:58:36.724Z,36.28
2023-02-02T04:01:06.116Z,36.19
2023-02-02T04:03:34.874Z,36.26
2023-02-02T04:06:03.106Z,36.24
2023-02-02T04:08:32.617Z,36.30
2023-02-02T04:11:00.824Z,36.19
2023-02-02T04:13:28.883Z,36.02
2023-02-02T04:16:01.462Z,36.00
2023-02-02T04:18:30.383Z,36.14
2023-02-02T04:20:59.786Z,36.17
2023-02-02T04:23:29.086Z,36.00
2023-02-02T04:25:59.180Z,36.02
2023-02-02T04:28:28.794Z,36.13
2023-02-02T04:30:57.903Z,36.16
2023-02-02T04:33:27.885Z,36.12
2023-02-02T04:35:56.357Z,36.13
2023-02-02T04:38:24.432Z,36.07
2023-02-02T04:40:52.552Z,36.07
2023-02-02T04:43:21.980Z,36.08
2023-02-02T04:45:50.399Z,36.07
2023-02-02T04:48:18.564Z,35.95
2023-02-02T04:50:46.577Z,35.89
2023-02-02T04:53:14.683Z,36.05
2023-02-02T04:55:42.770Z,36.19
2023-02-02T04:58:10.801Z,36.02
2023-02-02T05:00:40.334Z,35.91
2023-02-02T05:03:08.384Z,35.91
2023-02-02T05:05:36.452Z,35.96
2023-02-02T05:08:05.017Z,35.95
2023-02-02T05:10:33.279Z,35.91
2023-02-02T05:13:01.368Z,35.95
2023-02-02T05:15:29.468Z,35.95
2023-02-02T05:17:59.109Z,35.84
2023-02-02T05:20:27.194Z,35.74
2023-02-02T05:22:55.314Z,35.84
2023-02-02T05:25:23.645Z,35.98
2023-02-02T05:27:51.930Z,35.80
2023-02-02T05:30:20.032Z,35.73
2023-02-02T05:32:48.089Z,35.84
2023-02-02T05:35:17.641Z,35.90
2023-02-02T05:37:45.765Z,35.67
2023-02-02T05:40:14.264Z,35.91
2023-02-02T05:42:42.417Z,35.70
2023-02-02T05:45:11.638Z,35.86
2023-02-02T05:47:39.662Z,35.73
2023-02-02T05:50:08.415Z,35.83
2023-02-02T05:52:39.952Z,35.70
2023-02-02T05:55:09.935Z,35.70
2023-02-02T05:57:37.956Z,35.74
2023-02-02T06:00:07.303Z,35.99
2023-02-02T06:02:35.352Z,35.78
2023-02-02T06:05:03.458Z,35.74
2023-02-02T06:07:31.583Z,35.70
2023-02-02T06:10:01.131Z,35.81
2023-02-02T06:12:29.150Z,35.77
2023-02-02T06:14:57.170Z,35.71
2023-02-02T06:17:25.231Z,35.57
2023-02-02T06:19:53.375Z,35.71
2023-02-02T06:22:21.635Z,35.73
2023-02-02T06:24:49.721Z,35.62
2023-02-02T06:27:19.232Z,35.58
2023-02-02T06:29:47.350Z,35.59
2023-02-02T06:32:15.407Z,35.64
2023-02-02T06:34:43.442Z,35.65
2023-02-02T06:37:11.579Z,35.50
2023-02-02T06:39:39.655Z,35.48
2023-02-02T06:42:20.278Z,35.61
2023-02-02T06:44:50.496Z,35.42
2023-02-02T06:47:18.676Z,35.47
2023-02-02T06:49:46.720Z,35.51
2023-02-02T06:52:14.798Z,35.51
2023-02-02T06:54:42.821Z,35.56
2023-02-02T06:57:10.888Z,35.51
2023-02-02T06:59:41.076Z,35.53
2023-02-02T07:02:13.547Z,35.48
2023-02-02T07:04:41.637Z,35.42
2023-02-02T07:07:09.762Z,35.54
2023-02-02T07:09:37.897Z,35.44
2023-02-02T07:12:06.077Z,35.47
2023-02-02T07:14:34.196Z,35.44
2023-02-02T07:17:02.220Z,35.42
2023-02-02T07:19:31.696Z,35.44
2023-02-02T07:21:59.731Z,35.36
2023-02-02T07:24:28.881Z,35.41
2023-02-02T07:26:58.212Z,35.24
2023-02-02T07:29:26.813Z,35.25
2023-02-02T07:31:55.036Z,35.36
2023-02-02T07:34:23.366Z,35.40
2023-02-02T07:36:53.071Z,35.25
2023-02-02T07:39:21.139Z,35.29
2023-02-02T07:41:49.285Z,35.38
2023-02-02T07:44:17.649Z,35.30
2023-02-02T07:46:47.289Z,35.24
2023-02-02T07:49:17.199Z,35.22
2023-02-02T07:51:48.048Z,35.31
2023-02-02T07:54:17.767Z,35.12
2023-02-02T07:56:45.898Z,35.09
2023-02-02T07:59:14.353Z,35.24
2023-02-02T08:01:42.526Z,35.21
2023-02-02T08:04:10.714Z,35.19
2023-02-02T08:06:40.979Z,35.17
2023-02-02T08:09:10.357Z,35.10
2023-02-02T08:11:40.120Z,35.19
2023-02-02T08:14:08.648Z,35.15
2023-02-02T08:16:36.862Z,35.19
2023-02-02T08:19:05.070Z,35.09
2023-02-02T08:21:34.926Z,35.06
2023-02-02T08:24:04.654Z,35.06
2023-02-02T08:26:33.476Z,35.16
2023-02-02T08:29:05.252Z,35.08
2023-02-02T08:31:35.216Z,35.12
2023-02-02T08:34:03.623Z,35.01
2023-02-02T08:36:35.461Z,35.13
2023-02-02T08:39:05.094Z,35.09
2023-02-02T08:41:33.885Z,35.03
2023-02-02T08:44:06.142Z,35.03
2023-02-02T08:46:34.275Z,34.97
2023-02-02T08:49:02.466Z,35.01
2023-02-02T08:51:30.636Z,34.99
2023-02-02T08:53:58.800Z,35.01
2023-02-02T08:56:26.954Z,34.93
2023-02-02T08:58:58.202Z,34.88
2023-02-02T09:01:29.346Z,34.90
2023-02-02T09:03:59.379Z,34.99
2023-02-02T09:06:30.385Z,34.97
2023-02-02T09:08:58.627Z,34.90
2023-02-02T09:11:27.066Z,34.82
2023-02-02T09:13:57.301Z,34.73
2023-02-02T09:16:28.216Z,34.82
2023-02-02T09:18:57.120Z,34.68
2023-02-02T09:21:26.172Z,34.96
2023-02-02T09:23:55.122Z,34.93
2023-02-02T09:26:25.533Z,34.91
2023-02-02T09:28:55.272Z,34.83
2023-02-02T09:31:24.485Z,34.91
2023-02-02T09:33:55.819Z,34.84
2023-02-02T09:36:26.968Z,34.76
2023-02-02T09:38:55.253Z,34.74
2023-02-02T09:41:54.283Z,34.53
2023-02-02T09:44:34.374Z,34.66
2023-02-02T09:47:16.730Z,34.44
2023-02-02T09:49:56.315Z,34.60
2023-02-02T09:52:29.061Z,34.63
2023-02-02T09:55:01.823Z,34.59
2023-02-02T09:57:37.189Z,34.64
2023-02-02T10:00:07.219Z,34.77
2023-02-02T10:02:42.339Z,34.72
2023-02-02T10:05:17.408Z,34.66
2023-02-02T10:07:49.590Z,34.78
2023-02-02T10:10:23.529Z,34.78
2023-02-02T10:12:55.927Z,34.69
2023-02-02T10:15:33.600Z,34.61
2023-02-02T10:18:11.173Z,34.74
2023-02-02T10:20:47.801Z,34.55
2023-02-02T10:23:26.650Z,34.49
2023-02-02T10:26:02.801Z,34.60
2023-02-02T10:28:43.974Z,34.59
2023-02-02T10:31:23.559Z,34.43
2023-02-02T10:34:03.730Z,34.53
2023-02-02T10:36:48.575Z,34.42
2023-02-02T10:39:26.270Z,34.50
2023-02-02T10:42:06.713Z,34.55
2023-02-02T10:44:44.529Z,34.64
2023-02-02T10:47:17.939Z,34.69
2023-02-02T10:49:46.577Z,34.49
2023-02-02T10:52:19.013Z,34.79
2023-02-02T10:54:59.481Z,34.49
2023-02-02T10:58:01.971Z,34.31
2023-02-02T11:00:37.050Z,34.82
2023-02-02T11:03:07.315Z,34.61
2023-02-02T11:05:52.833Z,34.75
2023-02-02T11:08:26.758Z,34.66
2023-02-02T11:10:58.199Z,34.75
2023-02-02T11:13:32.330Z,34.67
2023-02-02T11:16:28.462Z,34.34
2023-02-02T11:19:01.050Z,34.68
2023-02-02T11:21:31.338Z,34.73
2023-02-02T11:24:03.572Z,34.66
2023-02-02T11:26:44.206Z,34.44
2023-02-02T11:29:17.500Z,34.73
2023-02-02T11:31:46.244Z,34.75
2023-02-02T11:34:22.887Z,34.49
2023-02-02T11:37:02.858Z,34.51
2023-02-02T11:39:32.264Z,34.68
2023-02-02T11:42:02.788Z,34.69
2023-02-02T11:44:34.438Z,34.69
2023-02-02T11:47:05.539Z,34.77
2023-02-02T11:49:38.721Z,34.66
2023-02-02T11:52:15.122Z,34.68
2023-02-02T11:54:49.261Z,34.56
2023-02-02T11:57:20.511Z,34.62
2023-02-02T11:59:50.502Z,34.70
2023-02-02T12:02:30.594Z,34.40
2023-02-02T12:05:15.176Z,34.32
2023-02-02T12:07:44.609Z,34.61
2023-02-02T12:10:21.345Z,34.46
2023-02-02T12:12:57.698Z,34.54
2023-02-02T12:15:38.510Z,34.52
2023-02-02T12:18:20.942Z,34.52
2023-02-02T12:20:57.450Z,34.63
2023-02-02T12:23:40.808Z,34.36
2023-02-02T12:26:22.882Z,34.32
2023-02-02T12:29:04.870Z,34.43
2023-02-02T12:31:44.203Z,34.46
2023-02-02T12:34:22.914Z,34.45
2023-02-02T12:37:03.231Z,34.53
2023-02-02T12:39:40.933Z,34.64
2023-02-02T12:42:42.490Z,34.13
2023-02-02T12:45:50.596Z,34.13
2023-02-02T12:48:32.876Z,34.49
2023-02-02T12:51:11.298Z,34.55
2023-02-02T12:54:32.930Z,34.35
2023-02-02T12:57:03.533Z,34.55
2023-02-02T12:59:55.351Z,34.25
2023-02-02T13:02:32.732Z,34.50
2023-02-02T13:05:16.519Z,34.52
2023-02-02T13:07:48.842Z,34.62
2023-02-02T13:10:23.451Z,34.59
2023-02-02T13:12:56.471Z,34.45
2023-02-02T13:15:33.904Z,34.40
2023-02-02T13:18:05.743Z,34.69
2023-02-02T13:20:40.294Z,34.61
2023-02-02T13:23:14.701Z,34.68
2023-02-02T13:25:48.776Z,34.57
2023-02-02T13:28:38.296Z,34.25
2023-02-02T13:31:14.141Z,34.53
2023-02-02T13:33:44.859Z,34.65
2023-02-02T13:36:25.647Z,34.58
2023-02-02T13:38:56.723Z,34.57
2023-02-02T13:41:25.865Z,34.51
2023-02-02T13:44:01.516Z,34.57
2023-02-02T13:46:39.308Z,34.62
2023-02-02T13:49:13.456Z,34.53
2023-02-02T13:52:03.823Z,34.28
2023-02-02T13:55:03.877Z,34.35
2023-02-02T13:57:56.996Z,34.42
2023-02-02T14:00:26.949Z,34.64
2023-02-02T14:02:59.342Z,34.55
2023-02-02T14:05:30.330Z,34.55
2023-02-02T14:08:03.409Z,34.61
2023-02-02T14:10:35.368Z,34.61
2023-02-02T14:13:32.965Z,34.51
2023-02-02T14:16:03.626Z,34.55
2023-02-02T14:18:56.244Z,34.25
2023-02-02T14:22:13.123Z,34.24
2023-02-02T14:24:53.664Z,34.48
2023-02-02T14:27:57.099Z,34.19
2023-02-02T14:30:28.788Z,34.55
2023-02-02T14:33:39.976Z,34.34
2023-02-02T14:36:15.304Z,34.43
2023-02-02T14:39:23.642Z,34.42
2023-02-02T14:42:40.294Z,34.23
2023-02-02T14:45:27.248Z,34.24
2023-02-02T14:47:58.901Z,34.45
2023-02-02T14:50:36.926Z,34.50
2023-02-02T14:53:09.400Z,34.56
2023-02-02T14:55:54.087Z,34.25
2023-02-02T14:58:28.324Z,34.62
2023-02-02T15:01:09.606Z,34.35
2023-02-02T15:03:48.969Z,34.51
2023-02-02T15:06:32.372Z,34.41
2023-02-02T15:12:42.327Z,34.11
2023-02-02T15:15:24.059Z,34.35
2023-02-02T15:18:05.346Z,34.38
2023-02-02T15:20:37.587Z,34.57
2023-02-02T15:23:10.266Z,34.55
2023-02-02T15:25:45.488Z,34.51
2023-02-02T15:28:25.969Z,34.37
2023-02-02T15:30:59.699Z,34.32
2023-02-02T15:33:31.120Z,34.52
2023-02-02T15:36:04.961Z,34.53
2023-02-02T15:38:37.033Z,34.41
2023-02-02T15:41:09.236Z,34.55
2023-02-02T15:43:39.875Z,34.57
2023-02-02T15:46:12.823Z,34.57
2023-02-02T15:48:43.471Z,34.49
2023-02-02T15:51:20.454Z,34.39
2023-02-02T15:53:52.018Z,34.39
2023-02-02T15:56:29.375Z,34.50
2023-02-02T15:59:01.950Z,34.53
2023-02-02T16:01:44.608Z,34.48
2023-02-02T16:04:18.791Z,34.33
2023-02-02T16:06:47.831Z,34.46
2023-02-02T16:09:25.830Z,34.33
2023-02-02T16:11:54.528Z,34.48
2023-02-02T16:14:24.663Z,34.38
2023-02-02T16:16:52.949Z,34.51
2023-02-02T16:19:22.865Z,34.47
2023-02-02T16:21:55.753Z,34.38
2023-02-02T16:24:27.317Z,34.38
2023-02-02T16:26:58.885Z,34.44
2023-02-02T16:29:29.610Z,34.39
2023-02-02T16:31:58.593Z,34.42
2023-02-02T16:34:46.829Z,34.10
2023-02-02T16:37:17.529Z,34.40
2023-02-02T16:39:45.997Z,34.38
2023-02-02T16:42:26.194Z,34.25
2023-02-02T16:44:56.884Z,34.38
2023-02-02T16:47:39.514Z,33.99
2023-02-02T16:50:27.712Z,34.13
2023-02-02T16:52:59.595Z,34.47
2023-02-02T16:55:43.445Z,34.36
2023-02-02T16:58:19.233Z,34.37
2023-02-02T17:01:12.619Z,34.17
2023-02-02T17:03:51.932Z,34.20
2023-02-02T17:06:38.378Z,34.22
2023-02-02T17:09:27.812Z,34.32
2023-02-02T17:12:02.364Z,34.19
2023-02-02T17:14:34.044Z,34.37
2023-02-02T17:17:06.820Z,34.18
2023-02-02T17:19:35.288Z,34.33
2023-02-02T17:22:06.378Z,34.41
2023-02-02T17:24:34.933Z,34.32
2023-02-02T17:27:03.759Z,34.17
2023-02-02T17:29:32.229Z,34.41
2023-02-02T17:32:00.470Z,34.32
2023-02-02T17:34:31.057Z,34.24
2023-02-02T17:37:00.475Z,34.21
2023-02-02T17:39:28.697Z,34.21
2023-02-02T17:41:57.321Z,34.20
2023-02-02T17:44:25.462Z,34.16
2023-02-02T17:46:53.707Z,34.20
2023-02-02T17:49:21.994Z,34.20
2023-02-02T17:51:51.634Z,34.22
2023-02-02T17:54:20.278Z,34.11
2023-02-02T17:56:48.481Z,34.15
2023-02-02T17:59:16.640Z,34.13
2023-02-02T18:01:45.682Z,34.26
2023-02-02T18:04:15.954Z,34.09
2023-02-02T18:06:44.216Z,34.14
2023-02-02T18:09:14.212Z,34.19
2023-02-02T18:11:42.711Z,34.10
2023-02-02T18:14:11.305Z,34.11
2023-02-02T18:16:39.439Z,34.16
2023-02-02T18:19:07.620Z,34.14
2023-02-02T18:21:35.865Z,34.11
2023-02-02T18:24:04.126Z,34.10
2023-02-02T18:26:34.876Z,34.05
2023-02-02T18:29:03.060Z,34.07
2023-02-02T18:31:32.144Z,34.14
2023-02-02T18:34:00.484Z,34.11
2023-02-02T18:36:28.678Z,34.00
2023-02-02T18:38:58.193Z,34.16
2023-02-02T18:41:26.571Z,34.04
2023-02-02T18:43:56.815Z,34.15
2023-02-02T18:46:26.730Z,34.03
2023-02-02T18:48:56.810Z,33.99
2023-02-02T18:51:25.366Z,34.02
2023-02-02T18:53:59.916Z,34.01
2023-02-02T18:56:29.067Z,34.06
2023-02-02T18:58:59.468Z,34.14
2023-02-02T19:01:27.818Z,33.90
2023-02-02T19:03:58.394Z,34.03
2023-02-02T19:06:44.239Z,34.07
2023-02-02T19:09:17.265Z,34.03
2023-02-02T19:11:47.962Z,33.98
2023-02-02T19:14:19.628Z,33.96
2023-02-02T19:16:50.097Z,34.09
2023-02-02T19:19:25.092Z,33.83
2023-02-02T19:21:56.504Z,34.06
2023-02-02T19:24:27.165Z,33.87
2023-02-02T19:26:55.876Z,34.02
2023-02-02T19:29:31.693Z,33.92
2023-02-02T19:32:03.470Z,33.85
2023-02-02T19:34:35.261Z,33.96
2023-02-02T19:37:13.883Z,33.91
2023-02-02T19:39:42.039Z,33.91
2023-02-02T19:42:12.806Z,33.97
2023-02-02T19:44:42.563Z,33.90
2023-02-02T19:47:22.551Z,33.64
2023-02-02T19:49:50.713Z,33.94
2023-02-02T19:52:23.776Z,33.85
2023-02-02T19:54:52.436Z,33.92
2023-02-02T19:57:25.505Z,33.84
2023-02-02T19:59:56.052Z,33.88
2023-02-02T20:02:53.337Z,33.51
2023-02-02T20:05:23.280Z,33.80
2023-02-02T20:07:57.413Z,33.80
2023-02-02T20:10:27.689Z,33.91
2023-02-02T20:12:56.550Z,33.84
2023-02-02T20:15:36.322Z,33.75
2023-02-02T20:18:07.014Z,33.69
2023-02-02T20:20:40.861Z,33.92
2023-02-02T20:23:24.055Z,33.65
2023-02-02T20:25:52.481Z,33.83
2023-02-02T20:28:43.466Z,33.71
2023-02-02T20:31:17.110Z,33.74
2023-02-02T20:33:47.591Z,33.90
2023-02-02T20:36:39.328Z,33.62
2023-02-02T20:39:23.857Z,33.58
2023-02-02T20:41:52.314Z,33.85
2023-02-02T20:44:20.620Z,33.90
2023-02-02T20:46:50.933Z,33.84
2023-02-02T20:49:20.809Z,33.83
2023-02-02T20:51:49.168Z,33.92
2023-02-02T20:54:17.626Z,33.78
2023-02-02T20:56:45.901Z,33.87
2023-02-02T20:59:14.216Z,33.78
2023-02-02T21:01:42.533Z,33.77
2023-02-02T21:04:12.205Z,33.76
2023-02-02T21:06:41.905Z,33.82
2023-02-02T21:09:11.552Z,33.83
2023-02-02T21:11:41.183Z,33.80
2023-02-02T21:14:09.545Z,33.79
2023-02-02T21:16:38.311Z,33.74
2023-02-02T21:19:06.646Z,33.80
2023-02-02T21:21:36.380Z,33.75
2023-02-02T21:24:04.574Z,33.81
2023-02-02T21:26:32.764Z,33.80
2023-02-02T21:29:01.218Z,33.76
2023-02-02T21:31:30.175Z,33.67
2023-02-02T21:33:58.573Z,33.77
2023-02-02T21:36:34.610Z,33.62
2023-02-02T21:39:22.444Z,33.42
2023-02-02T21:41:51.469Z,33.65
2023-02-02T21:44:22.591Z,33.76
2023-02-02T21:46:52.671Z,33.65
2023-02-02T21:49:23.957Z,33.73
2023-02-02T21:51:52.751Z,33.72
2023-02-02T21:54:27.421Z,33.65
2023-02-02T21:56:56.582Z,33.74
2023-02-02T21:59:27.146Z,33.74
2023-02-02T22:01:55.655Z,33.77
2023-02-02T22:04:25.602Z,33.62
2023-02-02T22:06:55.130Z,33.68
2023-02-02T22:09:26.604Z,33.74
2023-02-02T22:11:59.327Z,33.55
2023-02-02T22:14:34.475Z,33.68
2023-02-02T22:17:02.750Z,33.63
2023-02-02T22:19:35.699Z,33.53
2023-02-02T22:22:13.531Z,33.48
2023-02-02T22:24:44.041Z,33.59
2023-02-02T22:27:21.969Z,33.32
2023-02-02T22:29:51.015Z,33.52
2023-02-02T22:32:19.435Z,33.67
2023-02-02T22:34:47.560Z,33.59
2023-02-02T22:37:15.771Z,33.60
2023-02-02T22:39:45.440Z,33.50
2023-02-02T22:42:13.540Z,33.51
2023-02-02T22:44:44.058Z,33.64
2023-02-02T22:47:12.503Z,33.57
2023-02-02T22:49:40.650Z,33.54
2023-02-02T22:52:09.205Z,33.54
2023-02-02T22:54:37.343Z,33.52
2023-02-02T22:57:06.871Z,33.47
2023-02-02T22:59:35.055Z,33.60
2023-02-02T23:02:03.429Z,33.53
2023-02-02T23:04:31.533Z,33.58
2023-02-02T23:07:00.042Z,33.58
2023-02-02T23:09:28.241Z,33.50
2023-02-02T23:11:56.482Z,33.55
2023-02-02T23:14:26.128Z,33.43
2023-02-02T23:16:54.410Z,33.46
2023-02-02T23:19:22.853Z,33.33
2023-02-02T23:21:50.939Z,33.45
2023-02-02T23:24:19.123Z,33.47
2023-02-02T23:26:47.476Z,33.74
2023-02-02T23:29:15.643Z,33.41
2023-02-02T23:31:45.369Z,33.47
2023-02-02T23:34:13.773Z,33.43
2023-02-02T23:36:41.985Z,33.43
2023-02-02T23:39:10.243Z,33.43
2023-02-02T23:41:38.480Z,33.42
2023-02-02T23:44:06.756Z,33.41
2023-02-02T23:46:35.042Z,33.50
2023-02-02T23:49:04.936Z,33.41
2023-02-02T23:51:33.509Z,33.55
2023-02-02T23:54:02.496Z,33.41
2023-02-02T23:56:30.696Z,33.40
2023-02-02T23:58:58.922Z,33.32
